Time;durP1;ratioP1;P1;durP2;ratioP2;P2;SDS_P1;SDS_P2;PMS_P1;PMS_P2;Temp;Humidity;BMP_temperature;BMP_pressure;BME280_temperature;BME280_humidity;BME280_pressure;Samples;Min_cycle;Max_cycle;Signal;HPM_P1;HPM_P2
2022/01/20 06:00:28;;;;;;;1.83;1.40;;;5.40;97.20;;;;;;1720825;28;20442;-84
2022/01/20 06:01:18;;;;;;;1.58;1.48;;;5.40;97.20;;;;;;1721907;28;20206;-85
2022/01/20 06:02:14;;;;;;;1.40;1.30;;;5.40;97.20;;;;;;1721637;28;20207;-81
2022/01/20 06:04:15;;;;;;;1.38;1.27;;;5.30;97.20;;;;;;1722094;28;20252;-81
2022/01/20 06:05:07;;;;;;;1.20;0.93;;;5.30;97.20;;;;;;1722144;28;20262;-81
2022/01/20 06:06:02;;;;;;;1.50;1.25;;;5.30;97.20;;;;;;1721467;28;20676;-83
2022/01/20 06:06:53;;;;;;;1.20;1.10;;;5.30;97.20;;;;;;1721659;28;20205;-84
2022/01/20 06:07:44;;;;;;;1.47;1.37;;;5.30;97.20;;;;;;1721241;28;20193;-84
2022/01/20 06:08:36;;;;;;;1.25;1.08;;;5.30;97.20;;;;;;1721521;28;20445;-84
2022/01/20 06:09:28;;;;;;;1.40;1.25;;;5.30;97.20;;;;;;1721177;28;20644;-83
2022/01/20 06:10:19;;;;;;;1.38;1.27;;;5.30;97.20;;;;;;1720468;28;20202;-84
2022/01/20 06:11:11;;;;;;;1.33;1.23;;;5.30;97.20;;;;;;1721368;28;20208;-82
2022/01/20 06:12:02;;;;;;;1.60;1.40;;;5.20;97.20;;;;;;1721953;28;20807;-83
2022/01/20 06:12:53;;;;;;;1.98;1.27;;;5.20;97.20;;;;;;1721760;28;20208;-82
2022/01/20 06:13:45;;;;;;;2.05;1.50;;;5.20;97.20;;;;;;1722163;28;20229;-82
2022/01/20 06:14:36;;;;;;;1.50;1.40;;;5.30;97.20;;;;;;1721698;28;20224;-83
2022/01/20 06:15:29;;;;;;;1.13;1.00;;;5.20;97.20;;;;;;1721896;28;20197;-83
2022/01/20 06:16:20;;;;;;;1.17;1.08;;;5.20;97.20;;;;;;1721245;28;20259;-82
2022/01/20 06:17:11;;;;;;;1.92;1.17;;;5.30;97.20;;;;;;1721387;28;20235;-84
2022/01/20 06:18:04;;;;;;;1.30;1.20;;;5.30;97.20;;;;;;1720953;28;20209;-84
2022/01/20 06:18:55;;;;;;;1.00;0.90;;;5.20;97.20;;;;;;1718627;28;20459;-83
2022/01/20 06:19:46;;;;;;;1.37;1.27;;;5.20;97.20;;;;;;1714869;28;20204;-82
2022/01/20 06:20:38;;;;;;;9.77;4.78;;;5.20;97.20;;;;;;1720374;28;20217;-83
2022/01/20 06:21:32;;;;;;;44.70;20.05;;;5.30;97.20;;;;;;1721513;28;20275;-82
2022/01/20 06:22:22;;;;;;;44.55;21.00;;;5.20;97.20;;;;;;1721330;28;20719;-83
2022/01/20 06:23:15;;;;;;;35.73;17.53;;;5.20;97.20;;;;;;1720968;28;20604;-82
2022/01/20 06:24:07;;;;;;;31.70;15.25;;;5.20;97.20;;;;;;1720769;28;20205;-82
2022/01/20 06:24:58;;;;;;;22.67;11.90;;;5.30;97.20;;;;;;1715149;28;20213;-82
2022/01/20 06:25:50;;;;;;;21.63;10.73;;;5.30;97.20;;;;;;1715072;28;20281;-82
2022/01/20 06:26:41;;;;;;;15.20;9.93;;;5.30;97.20;;;;;;1719763;28;20550;-81
2022/01/20 06:27:32;;;;;;;10.80;7.03;;;5.30;97.20;;;;;;1715144;28;20629;-83
2022/01/20 06:28:24;;;;;;;7.32;5.38;;;5.30;97.20;;;;;;1715158;28;20209;-82
2022/01/20 06:29:15;;;;;;;6.43;5.00;;;5.30;97.20;;;;;;1713838;28;20255;-82
2022/01/20 06:30:07;;;;;;;6.32;4.93;;;5.30;97.20;;;;;;1714844;28;20213;-83
2022/01/20 06:31:01;;;;;;;4.28;3.75;;;5.30;97.20;;;;;;1714240;28;20591;-82
2022/01/20 06:31:51;;;;;;;4.55;3.45;;;5.30;97.20;;;;;;1714622;28;20202;-83
2022/01/20 06:32:43;;;;;;;2.80;2.50;;;5.30;97.20;;;;;;1714858;28;20212;-82
2022/01/20 06:33:34;;;;;;;3.42;2.50;;;5.30;97.20;;;;;;1714117;28;20206;-81
2022/01/20 06:34:26;;;;;;;5.30;3.70;;;5.30;97.20;;;;;;1714251;28;20197;-80
2022/01/20 06:35:17;;;;;;;3.65;3.35;;;5.30;97.20;;;;;;1714608;28;20217;-80
2022/01/20 06:36:08;;;;;;;3.00;2.23;;;5.30;97.20;;;;;;1714747;28;20294;-80
2022/01/20 06:36:59;;;;;;;1.92;1.75;;;5.40;97.20;;;;;;1714943;28;20202;-80
2022/01/20 06:37:51;;;;;;;1.63;1.50;;;5.40;97.20;;;;;;1717418;28;20201;-80
2022/01/20 06:38:42;;;;;;;2.33;1.40;;;5.40;97.20;;;;;;1721282;28;20212;-80
2022/01/20 06:39:34;;;;;;;1.42;1.33;;;5.30;97.20;;;;;;1720850;28;20201;-80
2022/01/20 06:40:25;;;;;;;1.50;1.40;;;5.30;97.20;;;;;;1717099;28;20695;-80
2022/01/20 06:41:17;;;;;;;1.50;1.40;;;5.40;97.20;;;;;;1713987;28;20284;-80
2022/01/20 06:42:08;;;;;;;1.70;1.50;;;5.40;97.20;;;;;;1713939;28;20208;-81
2022/01/20 06:43:00;;;;;;;5.05;3.15;;;5.40;97.20;;;;;;1714255;28;20646;-81
2022/01/20 06:43:51;;;;;;;2.28;1.80;;;5.40;97.20;;;;;;1712335;28;20674;-80
2022/01/20 06:44:43;;;;;;;2.10;1.80;;;5.50;97.20;;;;;;1714088;28;20677;-80
2022/01/20 06:45:35;;;;;;;2.35;1.83;;;5.50;97.20;;;;;;1718750;28;20452;-80
2022/01/20 06:46:27;;;;;;;2.38;1.65;;;5.50;97.20;;;;;;1720744;28;20197;-80
2022/01/20 06:47:20;;;;;;;1.73;1.63;;;5.40;97.20;;;;;;1720374;28;20240;-81
2022/01/20 06:48:11;;;;;;;1.75;1.65;;;5.40;97.20;;;;;;1720652;28;20664;-81
2022/01/20 06:49:03;;;;;;;1.80;1.70;;;5.40;97.20;;;;;;1720902;28;20205;-80
2022/01/20 06:49:54;;;;;;;2.28;2.08;;;5.30;97.20;;;;;;1721423;28;20201;-81
2022/01/20 06:50:46;;;;;;;1.63;1.53;;;5.30;97.20;;;;;;1721279;28;20231;-80
2022/01/20 06:51:37;;;;;;;1.67;1.50;;;5.30;97.20;;;;;;1721453;28;20561;-80
2022/01/20 06:52:29;;;;;;;1.73;1.63;;;5.30;97.20;;;;;;1721428;28;20290;-80
2022/01/20 06:53:20;;;;;;;1.60;1.50;;;5.30;97.20;;;;;;1721250;28;20961;-80
2022/01/20 06:54:11;;;;;;;1.40;1.20;;;5.40;97.20;;;;;;1720797;28;20656;-80
2022/01/20 06:55:05;;;;;;;1.77;1.60;;;5.40;97.20;;;;;;1721761;28;20298;-80
2022/01/20 06:55:56;;;;;;;1.60;1.50;;;5.40;97.20;;;;;;1719533;28;20197;-80
2022/01/20 06:56:47;;;;;;;2.22;1.80;;;5.40;97.20;;;;;;1721207;28;20287;-80
2022/01/20 06:57:40;;;;;;;1.80;1.70;;;5.50;97.20;;;;;;1719518;28;20193;-81
2022/01/20 06:58:32;;;;;;;1.90;1.80;;;5.50;97.20;;;;;;1720843;28;20204;-81
2022/01/20 06:59:24;;;;;;;1.60;1.50;;;5.50;97.20;;;;;;1721189;28;20295;-80
2022/01/20 07:00:17;;;;;;;1.98;1.88;;;5.50;97.20;;;;;;1720637;28;20278;-80
2022/01/20 07:01:08;;;;;;;2.90;2.05;;;5.50;97.20;;;;;;1720598;28;20336;-81
2022/01/20 07:02:01;;;;;;;2.00;1.80;;;5.50;97.20;;;;;;1721327;28;20212;-81
2022/01/20 07:02:53;;;;;;;1.90;1.80;;;5.50;97.20;;;;;;1720822;28;20201;-81
2022/01/20 07:03:44;;;;;;;2.05;1.73;;;5.60;97.20;;;;;;1720691;28;20201;-80
2022/01/20 07:04:37;;;;;;;1.80;1.70;;;5.60;97.20;;;;;;1720411;28;20201;-81
2022/01/20 07:05:27;;;;;;;1.90;1.80;;;5.60;97.20;;;;;;1720326;28;20347;-80
2022/01/20 07:06:19;;;;;;;2.00;1.90;;;5.70;97.20;;;;;;1720753;28;20201;-81
2022/01/20 07:07:10;;;;;;;1.80;1.70;;;5.70;97.20;;;;;;1721410;28;20231;-80
2022/01/20 07:08:02;;;;;;;2.23;1.80;;;5.70;97.20;;;;;;1720677;28;20212;-80
2022/01/20 07:08:52;;;;;;;2.65;2.45;;;5.80;97.20;;;;;;1721262;28;20220;-80
2022/01/20 07:09:45;;;;;;;2.07;1.90;;;5.80;97.20;;;;;;1721268;28;20288;-80
2022/01/20 07:10:36;;;;;;;2.30;2.10;;;5.80;97.20;;;;;;1721463;28;20271;-80
2022/01/20 07:11:27;;;;;;;2.10;1.90;;;5.80;97.20;;;;;;1721931;28;20578;-80
2022/01/20 07:12:19;;;;;;;1.80;1.70;;;5.80;97.20;;;;;;1722409;28;20567;-80
2022/01/20 07:13:09;;;;;;;2.00;1.58;;;5.80;97.20;;;;;;1722774;28;20695;-81
2022/01/20 07:14:01;;;;;;;1.83;1.60;;;5.70;97.20;;;;;;1722542;28;20541;-81
2022/01/20 07:14:53;;;;;;;2.05;1.85;;;5.70;97.20;;;;;;1722807;28;20216;-81
2022/01/20 07:15:44;;;;;;;1.65;1.55;;;5.60;97.20;;;;;;1722341;28;20201;-81
2022/01/20 07:16:36;;;;;;;2.23;2.03;;;5.60;97.20;;;;;;1722417;28;20278;-80
2022/01/20 07:17:28;;;;;;;2.50;2.30;;;5.60;97.20;;;;;;1722494;28;20691;-80
2022/01/20 07:18:20;;;;;;;2.00;1.80;;;5.50;97.20;;;;;;1722618;28;20197;-80
2022/01/20 07:19:10;;;;;;;1.88;1.75;;;5.50;97.20;;;;;;1722709;28;20240;-81
2022/01/20 07:20:02;;;;;;;1.77;1.67;;;5.40;97.20;;;;;;1722465;28;20196;-80
2022/01/20 07:20:53;;;;;;;2.00;1.90;;;5.40;97.20;;;;;;1722700;28;20605;-80
2022/01/20 07:21:45;;;;;;;2.80;2.00;;;5.40;97.20;;;;;;1722489;28;20651;-80
2022/01/20 07:22:35;;;;;;;1.90;1.80;;;5.40;97.20;;;;;;1722785;28;20448;-81
2022/01/20 07:23:27;;;;;;;2.03;1.70;;;5.30;97.20;;;;;;1722503;28;20280;-81
2022/01/20 07:24:18;;;;;;;2.60;2.40;;;5.30;97.20;;;;;;1722825;28;20209;-81
2022/01/20 07:25:10;;;;;;;2.23;1.87;;;5.30;97.20;;;;;;1722424;28;20201;-81
2022/01/20 07:26:01;;;;;;;2.30;2.13;;;5.30;97.20;;;;;;1722612;28;20204;-81
2022/01/20 07:26:53;;;;;;;2.30;2.10;;;5.30;97.20;;;;;;1722195;28;20209;-81
2022/01/20 07:27:43;;;;;;;2.00;1.90;;;5.20;97.20;;;;;;1722449;28;20213;-80
2022/01/20 07:28:35;;;;;;;3.33;2.40;;;5.20;97.20;;;;;;1722219;28;20201;-80
2022/01/20 07:29:26;;;;;;;2.58;2.10;;;5.20;97.20;;;;;;1722573;28;20201;-80
2022/01/20 07:30:18;;;;;;;2.00;1.80;;;5.20;97.20;;;;;;1722157;28;20205;-81
2022/01/20 07:31:09;;;;;;;2.65;2.45;;;5.20;97.20;;;;;;1722618;28;20452;-81
2022/01/20 07:32:03;;;;;;;2.90;2.70;;;5.20;97.20;;;;;;1722415;28;20199;-80
2022/01/20 07:32:55;;;;;;;3.00;2.70;;;5.20;97.20;;;;;;1722683;28;20815;-81
2022/01/20 07:33:47;;;;;;;2.83;2.50;;;5.20;97.20;;;;;;1722565;28;20201;-81
2022/01/20 07:34:37;;;;;;;2.85;2.65;;;5.20;97.20;;;;;;1722586;28;20205;-81
2022/01/20 07:35:29;;;;;;;3.50;2.77;;;5.20;97.20;;;;;;1722131;28;20661;-81
2022/01/20 07:36:21;;;;;;;3.88;2.85;;;5.20;97.20;;;;;;1722776;28;20688;-80
2022/01/20 07:37:12;;;;;;;2.70;2.50;;;5.20;97.20;;;;;;1722326;28;20208;-80
2022/01/20 07:38:04;;;;;;;2.67;2.47;;;5.20;97.20;;;;;;1722132;28;20698;-81
2022/01/20 07:38:55;;;;;;;5.47;2.97;;;5.20;97.20;;;;;;1722253;28;20236;-81
2022/01/20 07:39:47;;;;;;;2.97;2.78;;;5.20;97.20;;;;;;1722280;28;20740;-81
2022/01/20 07:40:38;;;;;;;3.65;3.20;;;5.20;97.20;;;;;;1722374;28;20354;-81
2022/01/20 07:41:30;;;;;;;3.77;3.33;;;5.20;97.20;;;;;;1722642;28;20225;-80
2022/01/20 07:42:21;;;;;;;3.35;3.03;;;5.10;97.20;;;;;;1722447;28;20212;-81
2022/01/20 07:43:12;;;;;;;2.90;2.60;;;5.10;97.20;;;;;;1722319;28;20201;-80
2022/01/20 07:44:03;;;;;;;3.03;2.75;;;5.10;97.20;;;;;;1722471;28;20220;-81
2022/01/20 07:44:55;;;;;;;2.97;2.67;;;5.10;97.20;;;;;;1722231;28;20203;-81
2022/01/20 07:45:46;;;;;;;3.90;2.88;;;5.10;97.20;;;;;;1722087;28;20194;-80
2022/01/20 07:46:38;;;;;;;3.80;3.50;;;5.10;97.20;;;;;;1722484;28;20209;-80
2022/01/20 07:47:29;;;;;;;2.63;2.42;;;5.10;97.20;;;;;;1722611;28;20495;-80
2022/01/20 07:48:23;;;;;;;3.00;2.70;;;5.10;97.20;;;;;;1721829;28;20205;-80
2022/01/20 07:49:14;;;;;;;3.42;2.92;;;5.00;97.20;;;;;;1722439;28;20267;-81
2022/01/20 07:50:07;;;;;;;3.05;2.75;;;5.00;97.20;;;;;;1721830;28;20205;-79
2022/01/20 07:50:58;;;;;;;3.40;3.10;;;5.00;97.20;;;;;;1722202;28;20252;-80
2022/01/20 07:51:50;;;;;;;3.87;3.10;;;5.00;97.20;;;;;;1722261;28;20193;-80
2022/01/20 07:52:40;;;;;;;4.55;2.88;;;5.00;97.20;;;;;;1722437;28;20452;-80
2022/01/20 07:53:32;;;;;;;3.30;2.53;;;5.00;97.20;;;;;;1722299;28;20289;-80
2022/01/20 07:54:24;;;;;;;5.28;3.08;;;5.00;97.20;;;;;;1722206;28;20246;-80
2022/01/20 07:55:15;;;;;;;3.40;3.10;;;5.00;97.20;;;;;;1722110;28;20205;-80
2022/01/20 07:56:07;;;;;;;4.00;3.22;;;5.00;97.20;;;;;;1722160;28;20193;-80
2022/01/20 07:56:57;;;;;;;3.70;3.25;;;5.00;97.20;;;;;;1722645;28;20232;-80
2022/01/20 07:57:49;;;;;;;6.17;4.37;;;5.00;97.20;;;;;;1721997;28;20201;-80
2022/01/20 07:58:41;;;;;;;4.47;2.78;;;5.00;97.20;;;;;;1722299;28;20233;-79
2022/01/20 07:59:32;;;;;;;3.10;2.80;;;5.00;97.20;;;;;;1722300;28;20201;-80
2022/01/20 08:00:23;;;;;;;4.80;2.93;;;5.00;97.20;;;;;;1721841;28;20205;-80
2022/01/20 08:01:15;;;;;;;3.00;2.60;;;5.00;97.20;;;;;;1722467;28;20235;-80
2022/01/20 08:02:06;;;;;;;4.45;3.15;;;5.00;97.20;;;;;;1722270;28;20695;-81
2022/01/20 08:02:58;;;;;;;4.00;3.00;;;5.10;97.20;;;;;;1722222;28;20584;-80
2022/01/20 08:03:50;;;;;;;3.38;2.90;;;5.10;97.20;;;;;;1722464;28;20444;-80
2022/01/20 08:04:41;;;;;;;4.00;3.50;;;5.10;97.20;;;;;;1722234;28;20217;-80
2022/01/20 08:05:32;;;;;;;4.40;2.90;;;5.10;97.20;;;;;;1722180;28;20696;-80
2022/01/20 08:06:24;;;;;;;3.97;2.60;;;5.10;97.20;;;;;;1722152;28;20632;-80
2022/01/20 08:07:16;;;;;;;5.13;3.08;;;5.10;97.20;;;;;;1722187;28;20455;-81
2022/01/20 08:08:06;;;;;;;3.95;2.90;;;5.10;97.20;;;;;;1722161;28;20213;-80
2022/01/20 08:08:58;;;;;;;4.10;3.07;;;5.10;97.20;;;;;;1722234;28;20296;-80
2022/01/20 08:09:54;;;;;;;2.92;2.72;;;5.20;97.20;;;;;;1722373;28;20232;-80
2022/01/20 08:10:46;;;;;;;3.75;2.63;;;5.20;97.20;;;;;;1721725;28;20467;-80
2022/01/20 08:11:37;;;;;;;5.45;3.30;;;5.20;97.20;;;;;;1722395;28;20202;-80
2022/01/20 08:12:29;;;;;;;8.57;3.05;;;5.20;97.20;;;;;;1722252;28;20228;-80
2022/01/20 08:13:21;;;;;;;4.85;2.40;;;5.20;97.20;;;;;;1722155;28;20199;-80
2022/01/20 08:14:12;;;;;;;3.40;3.10;;;5.30;97.20;;;;;;1722351;28;20228;-80
2022/01/20 08:15:04;;;;;;;4.35;2.97;;;5.30;97.20;;;;;;1722335;28;20236;-80
2022/01/20 08:15:56;;;;;;;3.28;2.63;;;5.30;97.20;;;;;;1722249;28;20236;-80
2022/01/20 08:16:47;;;;;;;4.55;2.90;;;5.30;97.20;;;;;;1722219;28;20672;-81
2022/01/20 08:17:38;;;;;;;4.67;3.13;;;5.40;97.20;;;;;;1722090;28;20661;-81
2022/01/20 08:18:29;;;;;;;4.15;2.70;;;5.40;97.20;;;;;;1723261;28;20205;-80
2022/01/20 08:19:22;;;;;;;4.33;3.20;;;5.40;97.20;;;;;;1722710;28;20201;-81
2022/01/20 08:20:14;;;;;;;5.70;2.75;;;5.40;97.20;;;;;;1722187;28;20237;-80
2022/01/20 08:21:05;;;;;;;2.92;2.72;;;5.40;97.20;;;;;;1722409;28;20220;-80
2022/01/20 08:21:57;;;;;;;4.18;2.70;;;5.40;97.20;;;;;;1723441;28;20245;-80
2022/01/20 08:22:48;;;;;;;3.40;2.85;;;5.40;97.20;;;;;;1722778;28;20209;-80
2022/01/20 08:23:39;;;;;;;3.60;2.93;;;5.50;97.20;;;;;;1721790;28;20201;-80
2022/01/20 08:24:30;;;;;;;4.05;3.38;;;5.50;97.20;;;;;;1722304;28;20205;-80
2022/01/20 08:25:23;;;;;;;4.13;3.00;;;5.50;97.20;;;;;;1722555;28;20239;-81
2022/01/20 08:26:15;;;;;;;5.03;3.35;;;5.50;97.20;;;;;;1722469;28;20201;-80
2022/01/20 08:27:06;;;;;;;5.00;3.20;;;5.60;97.20;;;;;;1722525;28;20234;-80
2022/01/20 08:27:57;;;;;;;5.57;3.13;;;5.60;97.20;;;;;;1722004;28;20205;-80
2022/01/20 08:28:48;;;;;;;5.93;3.72;;;5.60;97.20;;;;;;1722121;28;20253;-80
2022/01/20 08:29:40;;;;;;;6.03;3.10;;;5.60;97.20;;;;;;1722577;28;20197;-81
2022/01/20 08:30:31;;;;;;;6.75;3.88;;;5.60;97.20;;;;;;1722240;28;20232;-80
2022/01/20 08:31:23;;;;;;;4.55;3.00;;;5.60;97.20;;;;;;1722169;28;20197;-80
2022/01/20 08:32:15;;;;;;;4.60;2.92;;;5.60;97.20;;;;;;1722407;28;20684;-81
2022/01/20 08:33:07;;;;;;;5.18;2.92;;;5.60;97.20;;;;;;1722381;28;20209;-80
2022/01/20 08:33:58;;;;;;;3.90;2.80;;;5.60;97.20;;;;;;1722263;28;20213;-80
2022/01/20 08:34:51;;;;;;;8.95;2.80;;;5.60;97.20;;;;;;1722448;28;20201;-81
2022/01/20 08:35:44;;;;;;;4.82;2.90;;;5.60;97.20;;;;;;1722422;28;20220;-81
2022/01/20 08:36:35;;;;;;;4.72;3.00;;;5.60;97.20;;;;;;1722381;28;20236;-80
2022/01/20 08:37:26;;;;;;;6.70;2.90;;;5.60;97.20;;;;;;1722176;28;20216;-80
2022/01/20 08:38:17;;;;;;;8.05;3.58;;;5.60;97.20;;;;;;1721836;28;20209;-80
2022/01/20 08:40:28;;;;;;;4.63;3.30;;;5.50;97.20;;;;;;1754939;28;20526;-80
2022/01/20 08:41:20;;;;;;;5.95;2.90;;;5.50;97.20;;;;;;1754402;28;20213;-80
2022/01/20 08:42:11;;;;;;;6.70;3.75;;;5.40;97.20;;;;;;1754987;28;20225;-80
2022/01/20 08:43:05;;;;;;;5.97;3.53;;;5.40;97.20;;;;;;1754876;28;20200;-80
2022/01/20 08:43:56;;;;;;;4.65;3.42;;;5.40;97.20;;;;;;1754898;28;20206;-79
2022/01/20 08:44:48;;;;;;;4.73;3.13;;;5.40;97.20;;;;;;1754977;28;20286;-81
2022/01/20 08:45:43;;;;;;;6.65;3.33;;;5.40;97.20;;;;;;1754908;28;20651;-80
2022/01/20 08:46:34;;;;;;;5.63;3.72;;;5.40;97.20;;;;;;1754719;28;20205;-81
2022/01/20 08:47:26;;;;;;;4.33;3.20;;;5.40;97.20;;;;;;1754776;28;20221;-81
2022/01/20 08:48:18;;;;;;;6.50;3.58;;;5.40;97.20;;;;;;1754479;28;20251;-80
2022/01/20 08:49:08;;;;;;;4.25;3.38;;;5.40;97.20;;;;;;1754805;28;20198;-81
2022/01/20 08:50:00;;;;;;;6.17;4.47;;;5.40;97.20;;;;;;1754978;28;20197;-80
2022/01/20 08:50:52;;;;;;;4.82;3.15;;;5.40;97.20;;;;;;1752379;28;20261;-80
2022/01/20 08:51:43;;;;;;;7.90;3.60;;;5.40;97.20;;;;;;1747893;28;20237;-80
2022/01/20 08:52:34;;;;;;;4.90;3.40;;;5.40;97.20;;;;;;1747743;28;20199;-80
2022/01/20 08:53:26;;;;;;;8.90;3.20;;;5.40;97.20;;;;;;1748139;28;20685;-81
2022/01/20 08:54:21;;;;;;;5.78;3.65;;;5.30;97.20;;;;;;1747840;28;20205;-80
2022/01/20 08:55:11;;;;;;;6.30;3.58;;;5.40;97.20;;;;;;1747573;28;20202;-81
2022/01/20 08:56:05;;;;;;;7.10;3.70;;;5.40;97.20;;;;;;1747543;28;20198;-80
2022/01/20 08:56:56;;;;;;;7.95;3.50;;;5.40;97.20;;;;;;1747418;28;20480;-81
2022/01/20 08:57:48;;;;;;;5.93;3.10;;;5.40;97.20;;;;;;1747160;28;20209;-81
2022/01/20 08:58:40;;;;;;;4.88;3.38;;;5.40;97.20;;;;;;1747446;28;20452;-81
2022/01/20 08:59:30;;;;;;;6.70;3.40;;;5.40;97.20;;;;;;1747720;28;20221;-80
2022/01/20 09:00:26;;;;;;;6.50;3.30;;;5.40;97.20;;;;;;1747370;28;20223;-82
2022/01/20 09:01:17;;;;;;;6.43;3.25;;;5.30;97.20;;;;;;1752911;28;20229;-80
2022/01/20 09:02:09;;;;;;;6.53;3.80;;;5.30;97.20;;;;;;1754542;28;20194;-82
2022/01/20 09:03:01;;;;;;;5.57;3.53;;;5.30;97.20;;;;;;1754602;28;20252;-82
2022/01/20 09:03:52;;;;;;;9.98;3.55;;;5.30;97.20;;;;;;1754540;28;20206;-80
2022/01/20 09:04:43;;;;;;;4.10;3.03;;;5.30;97.20;;;;;;1754492;28;20280;-81
2022/01/20 09:05:34;;;;;;;5.57;3.08;;;5.30;97.20;;;;;;1754543;28;20198;-82
2022/01/20 09:06:26;;;;;;;5.83;3.53;;;5.30;97.20;;;;;;1754856;28;20194;-80
2022/01/20 09:07:18;;;;;;;6.22;3.65;;;5.30;97.20;;;;;;1754844;28;20202;-80
2022/01/20 09:08:12;;;;;;;6.85;3.17;;;5.30;97.20;;;;;;1754881;28;20229;-82
2022/01/20 09:09:03;;;;;;;5.57;3.15;;;5.30;97.20;;;;;;1754950;28;20684;-81
2022/01/20 09:09:55;;;;;;;5.47;3.13;;;5.30;97.20;;;;;;1754676;28;20660;-81
2022/01/20 09:10:53;;;;;;;7.32;3.80;;;5.30;97.20;;;;;;1753253;28;20456;-82
2022/01/20 09:12:02;;;;;;;5.97;3.15;;;5.30;97.20;;;;;;1747793;28;20199;-81
2022/01/20 09:15:30;;;;;;;5.18;3.15;;;5.40;97.20;;;;;;1748551;28;20221;-82
2022/01/20 09:16:22;;;;;;;3.97;3.20;;;5.40;97.20;;;;;;1748418;28;20630;-81
2022/01/20 09:17:13;;;;;;;5.93;3.60;;;5.40;97.20;;;;;;1747965;28;20240;-81
2022/01/20 09:18:08;;;;;;;5.67;3.10;;;5.40;97.20;;;;;;1747600;28;20202;-81
2022/01/20 09:18:59;;;;;;;4.88;3.17;;;5.40;97.20;;;;;;1748236;28;20198;-82
2022/01/20 09:19:51;;;;;;;5.93;3.60;;;5.40;97.20;;;;;;1747855;28;20263;-81
2022/01/20 09:20:41;;;;;;;8.23;3.40;;;5.40;97.20;;;;;;1747895;28;20946;-80
2022/01/20 09:21:33;;;;;;;5.57;4.53;;;5.50;97.20;;;;;;1747922;28;20600;-81
2022/01/20 09:22:25;;;;;;;5.40;3.58;;;5.50;97.20;;;;;;1747977;28;20213;-81
2022/01/20 09:23:17;;;;;;;7.40;3.72;;;5.50;97.20;;;;;;1747790;28;20262;-82
2022/01/20 09:24:08;;;;;;;5.45;3.80;;;5.60;97.20;;;;;;1747581;28;20203;-81
2022/01/20 09:24:59;;;;;;;7.30;3.73;;;5.60;97.20;;;;;;1747772;28;20201;-81
2022/01/20 09:25:50;;;;;;;6.20;3.90;;;5.60;97.20;;;;;;1747800;28;20676;-82
2022/01/20 09:26:42;;;;;;;9.47;5.40;;;5.60;97.20;;;;;;1747836;28;20650;-82
2022/01/20 09:27:35;;;;;;;5.90;3.70;;;5.60;97.20;;;;;;1747536;28;20688;-79
2022/01/20 09:28:27;;;;;;;7.72;3.30;;;5.70;97.20;;;;;;1747917;28;20230;-80
2022/01/20 09:29:17;;;;;;;7.68;3.67;;;5.70;97.20;;;;;;1747584;28;20237;-80
2022/01/20 09:30:10;;;;;;;7.07;3.47;;;5.70;97.20;;;;;;1747530;28;20206;-82
2022/01/20 09:31:02;;;;;;;4.47;3.20;;;5.70;97.20;;;;;;1750325;28;20654;-82
2022/01/20 09:31:53;;;;;;;6.25;3.60;;;5.80;97.20;;;;;;1754663;28;20198;-82
2022/01/20 09:32:57;;;;;;;5.03;3.47;;;5.80;97.20;;;;;;1754862;28;20205;-81
2022/01/20 09:33:48;;;;;;;6.93;3.42;;;5.80;97.20;;;;;;1754672;28;20601;-81
2022/01/20 09:34:39;;;;;;;7.63;3.70;;;5.80;97.20;;;;;;1754716;28;20684;-82
2022/01/20 09:35:33;;;;;;;5.97;3.40;;;5.80;97.20;;;;;;1754662;28;20640;-81
2022/01/20 09:36:24;;;;;;;9.05;3.90;;;5.80;97.20;;;;;;1754604;28;20505;-82
2022/01/20 09:37:16;;;;;;;7.30;3.27;;;5.80;97.20;;;;;;1754686;28;20202;-81
2022/01/20 09:38:07;;;;;;;8.18;3.53;;;5.80;97.20;;;;;;1754396;28;20622;-82
2022/01/20 09:38:59;;;;;;;6.03;3.65;;;5.80;97.20;;;;;;1756464;28;20600;-82
2022/01/20 09:39:50;;;;;;;7.50;3.20;;;5.80;97.20;;;;;;1755618;28;20217;-81
2022/01/20 09:40:43;;;;;;;6.77;3.30;;;5.70;97.20;;;;;;1754592;28;20308;-81
2022/01/20 09:41:34;;;;;;;7.15;3.40;;;5.70;97.20;;;;;;1748846;28;20195;-82
2022/01/20 09:42:26;;;;;;;6.20;3.43;;;5.80;97.20;;;;;;1747671;28;20202;-81
2022/01/20 09:43:19;;;;;;;6.55;3.10;;;5.80;97.20;;;;;;1748197;28;20449;-81
2022/01/20 09:44:10;;;;;;;5.50;2.63;;;5.80;97.20;;;;;;1748074;28;20199;-82
2022/01/20 09:45:02;;;;;;;6.90;2.90;;;5.80;97.20;;;;;;1748090;28;20187;-82
2022/01/20 09:45:55;;;;;;;7.85;3.35;;;5.80;97.20;;;;;;1747953;28;20448;-80
2022/01/20 09:46:46;;;;;;;9.48;3.67;;;5.80;97.20;;;;;;1747268;28;20568;-81
2022/01/20 09:47:38;;;;;;;7.20;3.08;;;5.80;97.20;;;;;;1747289;28;20199;-81
2022/01/20 09:48:31;;;;;;;6.20;3.45;;;5.80;97.20;;;;;;1747260;28;20207;-82
2022/01/20 09:49:22;;;;;;;6.35;3.30;;;5.80;97.20;;;;;;1747537;28;20206;-80
2022/01/20 09:50:18;;;;;;;5.97;2.83;;;5.80;97.20;;;;;;1747377;28;20199;-81
2022/01/20 09:51:13;;;;;;;6.82;3.55;;;5.90;97.20;;;;;;1746981;28;20967;-81
2022/01/20 09:52:04;;;;;;;9.10;3.90;;;5.90;97.20;;;;;;1745368;28;20202;-81
2022/01/20 09:52:59;;;;;;;5.57;3.15;;;5.90;97.20;;;;;;1749848;28;20199;-80
2022/01/20 09:53:50;;;;;;;9.48;3.45;;;5.90;97.20;;;;;;1750036;28;20249;-82
2022/01/20 09:54:42;;;;;;;7.43;2.77;;;6.00;97.20;;;;;;1749972;28;20285;-81
2022/01/20 09:55:35;;;;;;;6.72;3.22;;;6.00;97.20;;;;;;1750003;28;20445;-80
2022/01/20 09:56:26;;;;;;;5.93;3.35;;;6.10;97.20;;;;;;1750158;28;20202;-82
2022/01/20 09:57:18;;;;;;;10.73;5.10;;;6.10;97.20;;;;;;1749707;28;20210;-80
2022/01/20 09:58:11;;;;;;;8.77;5.00;;;6.10;97.20;;;;;;1749377;28;20240;-80
2022/01/20 09:59:03;;;;;;;5.50;3.15;;;6.20;97.20;;;;;;1749831;28;20211;-81
2022/01/20 09:59:55;;;;;;;10.20;3.05;;;6.20;97.20;;;;;;1745304;28;20244;-82
2022/01/20 10:00:48;;;;;;;7.22;2.85;;;6.20;97.20;;;;;;1743188;28;20262;-81
2022/01/20 10:01:41;;;;;;;7.53;2.88;;;6.10;97.20;;;;;;1743115;28;20210;-80
2022/01/20 10:02:33;;;;;;;6.60;3.08;;;6.10;97.20;;;;;;1742657;28;20305;-81
2022/01/20 10:03:27;;;;;;;6.03;2.75;;;6.10;97.20;;;;;;1743065;28;20203;-81
2022/01/20 10:04:19;;;;;;;7.75;3.38;;;6.10;97.20;;;;;;1742650;28;20203;-80
2022/01/20 10:05:11;;;;;;;5.35;2.47;;;6.10;97.20;;;;;;1742711;28;20199;-81
2022/01/20 10:06:02;;;;;;;6.90;3.17;;;6.20;97.20;;;;;;1742896;28;20207;-81
2022/01/20 10:06:55;;;;;;;7.35;2.97;;;6.20;97.20;;;;;;1742976;28;20708;-80
2022/01/20 10:07:47;;;;;;;5.63;3.10;;;6.20;97.20;;;;;;1742482;28;20286;-81
2022/01/20 10:08:39;;;;;;;6.57;3.03;;;6.20;97.20;;;;;;1742834;28;20199;-80
2022/01/20 10:09:34;;;;;;;7.78;3.28;;;6.20;97.20;;;;;;1743394;28;20207;-79
2022/01/20 10:10:39;;;;;;;5.82;2.70;;;6.30;97.20;;;;;;1749698;28;20194;-81
2022/01/20 10:11:31;;;;;;;8.40;4.18;;;6.30;97.20;;;;;;1749299;28;20206;-80
2022/01/20 10:12:27;;;;;;;7.57;3.40;;;6.30;97.20;;;;;;1749783;28;20198;-82
2022/01/20 10:13:23;;;;;;;7.38;2.78;;;6.30;97.20;;;;;;1749469;28;20201;-82
2022/01/20 10:14:15;;;;;;;6.35;2.80;;;6.30;97.20;;;;;;1749759;28;20237;-82
2022/01/20 10:15:11;;;;;;;5.70;2.45;;;6.30;97.20;;;;;;1749994;28;20202;-82
2022/01/20 10:16:06;;;;;;;7.15;3.40;;;6.30;97.20;;;;;;1749786;28;20259;-81
2022/01/20 10:16:57;;;;;;;13.43;3.78;;;6.30;97.20;;;;;;1750125;28;20637;-83
2022/01/20 10:17:48;;;;;;;6.47;3.03;;;6.20;97.20;;;;;;1749224;28;20225;-81
2022/01/20 10:18:46;;;;;;;5.72;3.30;;;6.20;97.20;;;;;;1749490;28;20236;-81
2022/01/20 10:19:41;;;;;;;6.97;3.03;;;6.20;97.20;;;;;;1747708;28;20209;-81
2022/01/20 10:20:32;;;;;;;5.00;3.25;;;6.20;97.20;;;;;;1742714;28;20223;-83
2022/01/20 10:21:31;;;;;;;7.03;3.97;;;6.20;97.20;;;;;;1742693;28;20230;-82
2022/01/20 10:22:24;;;;;;;12.50;3.65;;;6.20;97.20;;;;;;1742641;28;20445;-82
2022/01/20 10:23:31;;;;;;;10.60;4.10;;;6.20;97.20;;;;;;1742467;28;20238;-82
2022/01/20 10:24:27;;;;;;;8.57;3.60;;;6.20;97.20;;;;;;1742778;28;20227;-82
2022/01/20 10:25:19;;;;;;;8.15;3.92;;;6.30;97.20;;;;;;1742900;28;20238;-80
2022/01/20 10:26:14;;;;;;;8.63;3.35;;;6.30;97.20;;;;;;1742452;28;20201;-79
2022/01/20 10:27:09;;;;;;;9.45;3.72;;;6.30;97.20;;;;;;1742879;28;20214;-83
2022/01/20 10:28:01;;;;;;;5.45;3.15;;;6.30;97.20;;;;;;1742332;28;20592;-80
2022/01/20 10:28:56;;;;;;;5.75;3.40;;;6.40;97.20;;;;;;1742644;28;20206;-82
2022/01/20 10:29:57;;;;;;;7.18;3.83;;;6.40;97.20;;;;;;1744646;28;20203;-82
2022/01/20 10:30:49;;;;;;;7.22;3.42;;;6.40;97.20;;;;;;1749638;28;20230;-83
2022/01/20 10:31:42;;;;;;;7.15;4.50;;;6.40;97.20;;;;;;1749185;28;20281;-80
2022/01/20 10:32:40;;;;;;;8.63;3.60;;;6.40;97.20;;;;;;1749280;28;20203;-82
2022/01/20 10:33:40;;;;;;;10.05;3.63;;;6.40;97.20;;;;;;1749203;28;20259;-82
2022/01/20 10:34:35;;;;;;;8.07;3.45;;;6.40;97.20;;;;;;1749217;28;20211;-81
2022/01/20 10:35:31;;;;;;;9.10;4.43;;;6.40;97.20;;;;;;1749732;28;20294;-81
2022/01/20 10:36:22;;;;;;;7.60;3.20;;;6.40;97.20;;;;;;1749683;28;20207;-81
2022/01/20 10:37:16;;;;;;;7.80;4.43;;;6.40;97.20;;;;;;1749426;28;20198;-82
2022/01/20 10:38:12;;;;;;;8.48;3.83;;;6.30;97.20;;;;;;1749059;28;20209;-82
2022/01/20 10:39:05;;;;;;;6.38;3.72;;;6.30;97.20;;;;;;1749291;28;20207;-83
2022/01/20 10:40:09;;;;;;;6.20;3.50;;;6.30;97.20;;;;;;1745407;28;20275;-82